Time;durP1;ratioP1;P1;durP2;ratioP2;P2;SDS_P1;SDS_P2;PMS_P1;PMS_P2;Temp;Humidity;BMP_temperature;BMP_pressure;BME280_temperature;BME280_humidity;BME280_pressure;Samples;Min_cycle;Max_cycle;Signal;HPM_P1;HPM_P2
2022/12/16 00:01:03;;;;;;;19.07;10.07;;;-3.60;99.90;;;;;;6183768;23;20421;-60
2022/12/16 00:03:30;;;;;;;24.03;10.27;;;-3.60;99.90;;;;;;6184028;23;20393;-56
2022/12/16 00:05:57;;;;;;;20.87;11.70;;;-3.60;99.90;;;;;;6183841;23;20386;-61
2022/12/16 00:08:24;;;;;;;17.83;9.77;;;-3.70;99.90;;;;;;6183107;23;20370;-61
2022/12/16 00:10:57;;;;;;;18.63;10.40;;;-3.60;99.90;;;;;;6182569;23;20444;-61
2022/12/16 00:13:26;;;;;;;20.83;11.10;;;-3.60;99.90;;;;;;6182936;23;20508;-60
2022/12/16 00:15:53;;;;;;;9.20;7.27;;;-3.60;99.90;;;;;;6178098;23;20402;-59
2022/12/16 00:18:22;;;;;;;26.73;13.33;;;-3.60;99.90;;;;;;6183529;23;20398;-58
2022/12/16 00:20:51;;;;;;;23.07;11.30;;;-3.60;99.90;;;;;;6183967;23;20397;-62
2022/12/16 00:23:19;;;;;;;21.20;12.27;;;-3.60;99.90;;;;;;6178150;23;20410;-62
2022/12/16 00:25:47;;;;;;;19.10;9.67;;;-3.60;99.90;;;;;;6183554;23;20390;-62
2022/12/16 00:28:15;;;;;;;16.63;11.63;;;-3.70;99.90;;;;;;6184027;23;20420;-60
2022/12/16 00:30:45;;;;;;;9.43;7.67;;;-3.70;99.90;;;;;;6186314;23;20409;-65
2022/12/16 00:33:17;;;;;;;25.10;9.50;;;-3.70;99.90;;;;;;6185766;23;20471;-57
2022/12/16 00:35:44;;;;;;;14.03;8.17;;;-3.90;99.90;;;;;;6185845;23;20366;-60
2022/12/16 00:38:11;;;;;;;17.43;8.97;;;-3.80;99.90;;;;;;6185879;23;20423;-58
2022/12/16 00:40:37;;;;;;;22.97;10.50;;;-3.80;99.90;;;;;;6186374;23;20400;-58
2022/12/16 00:43:04;;;;;;;15.07;8.50;;;-3.80;99.90;;;;;;6185716;23;20427;-63
2022/12/16 00:45:31;;;;;;;14.97;7.37;;;-3.80;99.90;;;;;;6185712;23;20386;-59
2022/12/16 00:47:59;;;;;;;25.67;11.27;;;-3.80;99.90;;;;;;6180939;23;20401;-62
2022/12/16 00:50:27;;;;;;;10.47;8.17;;;-3.90;99.90;;;;;;6184586;23;20465;-59
2022/12/16 00:52:54;;;;;;;17.23;8.60;;;-4.00;99.90;;;;;;6184545;23;20382;-62
2022/12/16 00:55:21;;;;;;;19.33;9.60;;;-4.00;99.90;;;;;;6175422;23;20440;-60
2022/12/16 00:57:50;;;;;;;17.33;10.60;;;-4.00;99.90;;;;;;6184841;23;20408;-59
2022/12/16 01:00:18;;;;;;;24.30;10.63;;;-4.00;99.90;;;;;;6184711;23;20409;-62
2022/12/16 01:02:49;;;;;;;24.43;11.00;;;-4.00;99.90;;;;;;6185472;23;20396;-61
2022/12/16 01:05:21;;;;;;;27.23;8.33;;;-4.00;99.90;;;;;;6185690;23;20429;-58
2022/12/16 01:07:48;;;;;;;23.93;11.40;;;-4.00;99.90;;;;;;6185999;23;20385;-60
2022/12/16 01:10:15;;;;;;;25.87;8.07;;;-4.00;99.90;;;;;;6180450;23;20432;-60
2022/12/16 01:12:42;;;;;;;26.00;9.50;;;-4.00;99.90;;;;;;6179196;23;20401;-59
2022/12/16 01:15:13;;;;;;;16.60;9.10;;;-4.10;99.90;;;;;;6182026;23;20468;-59
2022/12/16 01:17:41;;;;;;;13.50;7.83;;;-4.10;99.90;;;;;;6186794;23;20421;-53
2022/12/16 01:20:09;;;;;;;12.40;8.23;;;-4.10;99.90;;;;;;6185930;23;20429;-62
2022/12/16 01:22:37;;;;;;;8.80;6.10;;;-4.10;99.90;;;;;;6184890;23;20401;-62
2022/12/16 01:25:05;;;;;;;22.70;7.67;;;-4.10;99.90;;;;;;6184786;23;20424;-62
2022/12/16 01:27:32;;;;;;;30.03;13.13;;;-4.10;99.90;;;;;;6185199;23;20396;-59
2022/12/16 01:29:59;;;;;;;15.53;8.00;;;-4.10;99.90;;;;;;6184875;23;20433;-63
2022/12/16 01:32:26;;;;;;;11.30;7.83;;;-4.10;99.90;;;;;;6182600;23;20393;-62
2022/12/16 01:34:54;;;;;;;19.90;11.23;;;-4.10;99.90;;;;;;6184228;23;20448;-62
2022/12/16 01:37:21;;;;;;;14.57;10.70;;;-4.10;99.90;;;;;;6184265;23;20406;-62
2022/12/16 01:39:49;;;;;;;18.53;10.10;;;-4.10;99.90;;;;;;6179536;23;20425;-65
2022/12/16 01:42:20;;;;;;;17.23;10.10;;;-4.10;99.90;;;;;;6181625;23;20864;-59
2022/12/16 01:44:49;;;;;;;17.43;7.33;;;-4.10;99.90;;;;;;6182570;23;20386;-61
2022/12/16 01:47:20;;;;;;;12.17;9.50;;;-4.10;99.90;;;;;;6183110;23;20412;-60
2022/12/16 01:49:50;;;;;;;16.80;9.10;;;-3.50;99.90;;;;;;6183158;23;20401;-61
2022/12/16 01:52:23;;;;;;;17.90;10.70;;;-4.10;99.90;;;;;;6183349;23;20439;-63
2022/12/16 01:54:56;;;;;;;17.40;10.10;;;-4.20;99.90;;;;;;6179354;23;20430;-59
2022/12/16 01:57:27;;;;;;;9.73;7.80;;;-4.20;99.90;;;;;;6182691;23;20438;-62
2022/12/16 01:59:56;;;;;;;22.53;9.67;;;-4.20;99.90;;;;;;6183000;23;20386;-64
2022/12/16 02:02:23;;;;;;;10.37;8.87;;;-4.30;99.90;;;;;;6177356;23;20433;-60
2022/12/16 02:07:35;;;;;;;17.40;9.13;;;-4.30;99.90;;;;;;6182801;23;20425;-60
2022/12/16 02:10:04;;;;;;;10.23;6.90;;;-4.30;99.90;;;;;;6182836;23;20420;-59
2022/12/16 02:12:40;;;;;;;14.13;8.93;;;-4.30;99.90;;;;;;6182637;23;20501;-63
2022/12/16 02:15:28;;;;;;;14.47;7.40;;;-4.40;99.90;;;;;;6181928;23;20425;-63
2022/12/16 02:18:04;;;;;;;11.80;6.40;;;-4.40;99.90;;;;;;6181813;23;20714;-62
2022/12/16 02:21:12;;;;;;;17.47;9.13;;;-4.50;99.90;;;;;;6182738;23;20385;-63
2022/12/16 02:24:16;;;;;;;18.07;9.67;;;-4.40;99.90;;;;;;6182226;23;20430;-62
2022/12/16 02:27:18;;;;;;;11.00;7.53;;;-4.50;99.90;;;;;;6182348;23;20406;-62
2022/12/16 02:30:04;;;;;;;13.10;7.27;;;-4.40;99.90;;;;;;6182651;23;20409;-62
2022/12/16 02:32:38;;;;;;;7.27;6.10;;;-4.50;99.90;;;;;;6182089;23;20405;-62
2022/12/16 02:35:10;;;;;;;9.13;7.40;;;-4.50;99.90;;;;;;6178115;23;20435;-63
2022/12/16 02:37:42;;;;;;;9.17;7.83;;;-4.50;99.90;;;;;;6182330;23;20395;-61
2022/12/16 02:40:20;;;;;;;8.53;5.03;;;-4.60;99.90;;;;;;6182827;23;20386;-61
2022/12/16 02:42:52;;;;;;;11.07;7.70;;;-4.10;99.90;;;;;;6177789;23;20421;-60
2022/12/16 02:45:23;;;;;;;17.20;7.43;;;-4.60;99.90;;;;;;6182585;23;20386;-61
2022/12/16 02:47:51;;;;;;;15.83;7.87;;;-4.60;99.90;;;;;;6183464;23;20390;-63
2022/12/16 02:50:22;;;;;;;18.33;7.70;;;-4.60;99.90;;;;;;6182412;23;20437;-58
2022/12/16 02:52:50;;;;;;;13.70;5.83;;;-4.60;99.90;;;;;;6182505;23;20390;-61
2022/12/16 02:55:18;;;;;;;20.63;9.17;;;-4.60;99.90;;;;;;6181953;23;20466;-62
2022/12/16 02:57:58;;;;;;;47.20;8.80;;;-4.50;99.90;;;;;;6182620;23;20417;-62
2022/12/16 03:00:33;;;;;;;14.40;8.20;;;-4.50;99.90;;;;;;6182550;23;20410;-60
2022/12/16 03:03:08;;;;;;;5.60;3.57;;;-4.50;99.90;;;;;;6183304;23;20386;-62
2022/12/16 03:05:41;;;;;;;9.13;6.10;;;-4.50;99.90;;;;;;6182391;23;20422;-61
2022/12/16 03:08:13;;;;;;;17.13;7.47;;;-4.60;99.90;;;;;;6177062;23;20386;-60
2022/12/16 03:10:46;;;;;;;13.07;9.03;;;-4.60;99.90;;;;;;6182713;23;20501;-61
2022/12/16 03:13:17;;;;;;;11.43;8.80;;;-4.60;99.90;;;;;;6182850;23;20486;-59
2022/12/16 03:15:46;;;;;;;17.20;8.30;;;-4.60;99.90;;;;;;6182257;23;20450;-60
2022/12/16 03:18:16;;;;;;;9.87;7.80;;;-4.70;99.90;;;;;;6177080;23;20384;-62
2022/12/16 03:20:49;;;;;;;13.07;6.67;;;-4.70;99.90;;;;;;6181770;23;20468;-63
2022/12/16 03:23:21;;;;;;;19.43;7.40;;;-4.60;99.90;;;;;;6182299;23;20378;-61
2022/12/16 03:25:53;;;;;;;13.53;10.87;;;-4.60;99.90;;;;;;6177176;23;20448;-61
2022/12/16 03:28:32;;;;;;;17.93;8.50;;;-4.60;99.90;;;;;;6182102;23;20390;-59
2022/12/16 03:31:08;;;;;;;45.27;8.80;;;-4.60;99.90;;;;;;6182437;23;20430;-63
2022/12/16 03:33:41;;;;;;;19.53;8.37;;;-4.60;99.90;;;;;;6182640;23;20382;-56
2022/12/16 03:36:13;;;;;;;20.17;11.03;;;-4.60;99.90;;;;;;6182330;23;20486;-58
2022/12/16 03:38:43;;;;;;;11.20;9.23;;;-4.50;99.90;;;;;;6181894;23;20401;-62
2022/12/16 03:41:11;;;;;;;23.80;8.37;;;-4.50;99.90;;;;;;6181229;23;20433;-62
2022/12/16 03:43:38;;;;;;;11.33;8.10;;;-4.50;99.90;;;;;;6181205;23;20390;-62
2022/12/16 03:46:07;;;;;;;17.40;8.97;;;-4.50;99.90;;;;;;6180593;23;20402;-60
2022/12/16 03:48:37;;;;;;;15.50;8.20;;;-4.50;99.90;;;;;;6181640;23;20390;-62
2022/12/16 03:51:04;;;;;;;23.73;8.87;;;-4.50;99.90;;;;;;6182082;23;20437;-61
2022/12/16 03:53:31;;;;;;;16.43;7.53;;;-4.50;99.90;;;;;;6182331;23;20414;-62
2022/12/16 03:56:01;;;;;;;13.33;9.80;;;-4.40;99.90;;;;;;6181812;23;20441;-62
2022/12/16 03:58:28;;;;;;;16.10;7.17;;;-4.40;99.90;;;;;;6181803;23;20433;-61
2022/12/16 04:00:55;;;;;;;13.03;6.40;;;-4.40;99.90;;;;;;6181791;23;20405;-62
2022/12/16 04:03:25;;;;;;;16.17;7.80;;;-4.30;99.90;;;;;;6181640;23;20452;-63
2022/12/16 04:05:53;;;;;;;14.03;7.63;;;-4.10;99.90;;;;;;6181839;23;20377;-62
2022/12/16 04:08:20;;;;;;;18.77;8.87;;;-4.30;99.90;;;;;;6181193;23;20429;-62
2022/12/16 04:24:35;;;;;;;21.70;9.37;;;-4.10;99.90;;;;;;6181335;23;20437;-60
